Time;durP1;ratioP1;P1;durP2;ratioP2;P2;SDS_P1;SDS_P2;PMS_P1;PMS_P2;Temp;Humidity;BMP_temperature;BMP_pressure;BME280_temperature;BME280_humidity;BME280_pressure;Samples;Min_cycle;Max_cycle;Signal;HPM_P1;HPM_P2
2022/06/11 00:02:25;;;;;;;4.38;1.98;;;19.60;94.10;;;;;;4826188;29;20502;-88
2022/06/11 00:04:51;;;;;;;5.47;2.00;;;19.70;94.00;;;;;;4824132;29;20039;-88
2022/06/11 00:07:21;;;;;;;5.95;2.08;;;19.60;94.00;;;;;;4824173;29;20033;-89
2022/06/11 00:09:48;;;;;;;5.25;1.83;;;19.60;94.00;;;;;;4823002;29;20063;-89
2022/06/11 00:12:14;;;;;;;4.93;2.17;;;19.60;94.10;;;;;;4824048;29;20079;-89
2022/06/11 00:14:40;;;;;;;5.47;1.80;;;19.60;94.50;;;;;;4824287;29;20043;-89
2022/06/11 00:17:09;;;;;;;3.67;1.80;;;19.60;94.50;;;;;;4824532;29;20022;-89
2022/06/11 00:19:35;;;;;;;4.85;1.67;;;19.60;94.90;;;;;;4822522;29;20041;-88
2022/06/11 00:22:03;;;;;;;4.43;1.65;;;19.60;94.50;;;;;;4823004;29;20053;-88
2022/06/11 00:24:28;;;;;;;6.20;2.03;;;19.60;94.30;;;;;;4820214;29;20087;-89
2022/06/11 00:26:56;;;;;;;3.55;1.92;;;19.50;94.30;;;;;;4805904;29;20023;-89
2022/06/11 00:29:25;;;;;;;7.70;2.33;;;19.50;94.50;;;;;;4824380;29;20109;-89
2022/06/11 00:31:52;;;;;;;6.07;2.30;;;19.50;94.90;;;;;;4823435;29;20460;-88
2022/06/11 00:34:18;;;;;;;4.35;1.58;;;19.40;95.10;;;;;;4809362;29;20035;-89
2022/06/11 00:36:44;;;;;;;6.05;2.00;;;19.40;95.20;;;;;;4821717;29;20578;-88
2022/06/11 00:39:12;;;;;;;5.07;1.50;;;19.40;95.10;;;;;;4826728;29;20038;-89
2022/06/11 00:41:41;;;;;;;4.13;1.60;;;19.40;95.20;;;;;;4825137;29;20083;-89
2022/06/11 00:44:07;;;;;;;5.00;2.10;;;19.40;95.40;;;;;;4817478;29;20053;-89
2022/06/11 00:46:42;;;;;;;8.55;1.98;;;19.30;95.20;;;;;;4824235;29;20030;-89
2022/06/11 00:49:29;;;;;;;9.07;2.47;;;19.30;95.40;;;;;;4844357;29;20041;-89
2022/06/11 00:52:10;;;;;;;9.20;2.50;;;19.20;95.40;;;;;;4845956;29;20495;-89
2022/06/11 00:54:39;;;;;;;3.63;1.67;;;19.20;95.50;;;;;;4844763;29;20128;-89
2022/06/11 00:57:06;;;;;;;5.88;1.98;;;19.10;95.80;;;;;;4829398;29;20038;-89
2022/06/11 00:59:38;;;;;;;4.38;2.03;;;19.20;95.70;;;;;;4826175;29;20045;-88
2022/06/11 01:02:04;;;;;;;5.30;1.80;;;19.10;95.80;;;;;;4827127;29;20027;-88
2022/06/11 01:04:35;;;;;;;6.90;2.08;;;19.00;96.00;;;;;;4826943;29;20039;-89
2022/06/11 01:07:27;;;;;;;11.15;2.60;;;19.00;96.00;;;;;;4827255;29;20027;-88
2022/06/11 01:10:16;;;;;;;6.55;1.95;;;18.90;96.30;;;;;;4825418;29;20053;-88
2022/06/11 01:13:00;;;;;;;7.82;2.00;;;18.90;96.50;;;;;;4818863;29;20383;-88
2022/06/11 01:15:32;;;;;;;5.40;1.90;;;18.90;96.40;;;;;;4826952;29;20065;-88
2022/06/11 01:18:27;;;;;;;6.90;1.85;;;18.70;96.60;;;;;;4829072;29;20038;-87
2022/06/11 01:20:56;;;;;;;7.93;1.95;;;18.80;96.80;;;;;;4809951;29;20042;-88
2022/06/11 01:23:28;;;;;;;6.03;1.90;;;18.80;96.70;;;;;;4825547;29;20028;-89
2022/06/11 01:26:31;;;;;;;4.93;1.85;;;18.70;96.60;;;;;;4826438;29;20029;-89
2022/06/11 01:29:26;;;;;;;5.75;2.13;;;18.60;96.70;;;;;;4826340;29;20082;-89
2022/06/11 01:32:00;;;;;;;11.27;1.98;;;18.60;96.70;;;;;;4826463;29;20372;-89
2022/06/11 01:34:56;;;;;;;5.43;2.08;;;18.70;96.90;;;;;;4825904;29;20034;-89
2022/06/11 01:37:29;;;;;;;4.70;1.70;;;18.60;97.00;;;;;;4826436;29;20507;-89
2022/06/11 01:40:06;;;;;;;5.60;1.98;;;18.50;97.70;;;;;;4824781;29;20179;-89
2022/06/11 01:42:50;;;;;;;8.13;2.10;;;18.50;97.70;;;;;;4825516;29;20030;-88
2022/06/11 01:45:19;;;;;;;6.10;1.98;;;18.50;98.30;;;;;;4825266;29;20053;-89
2022/06/11 01:47:46;;;;;;;7.07;2.28;;;18.40;98.30;;;;;;4844068;29;20061;-89
2022/06/11 01:50:16;;;;;;;8.25;1.80;;;18.40;98.40;;;;;;4844821;29;20036;-88
2022/06/11 01:53:20;;;;;;;8.35;2.08;;;18.30;98.30;;;;;;4844868;29;20025;-89
2022/06/11 01:55:49;;;;;;;5.72;1.95;;;18.30;98.40;;;;;;4845849;29;20041;-86
2022/06/11 01:58:26;;;;;;;5.82;1.90;;;18.30;98.60;;;;;;4845412;29;20045;-87
2022/06/11 02:01:13;;;;;;;6.70;2.47;;;18.30;98.30;;;;;;4844764;29;20113;-87
2022/06/11 02:03:52;;;;;;;7.10;2.00;;;18.20;98.40;;;;;;4822686;29;20122;-88
2022/06/11 02:06:36;;;;;;;5.75;1.70;;;18.20;98.40;;;;;;4823518;29;20069;-89
2022/06/11 02:09:36;;;;;;;4.70;1.92;;;18.20;98.80;;;;;;4807045;29;20039;-89
2022/06/11 02:12:28;;;;;;;5.80;2.33;;;18.10;98.40;;;;;;4808134;29;20038;-88
2022/06/11 02:15:19;;;;;;;5.93;2.10;;;18.10;98.70;;;;;;4807713;29;20049;-88
2022/06/11 02:17:49;;;;;;;8.32;2.00;;;18.10;98.40;;;;;;4806749;29;20038;-88
2022/06/11 02:20:20;;;;;;;4.32;2.03;;;18.10;98.80;;;;;;4806791;29;20412;-89
2022/06/11 02:22:53;;;;;;;4.07;1.50;;;18.00;98.40;;;;;;4837157;29;20500;-89
2022/06/11 02:25:26;;;;;;;4.10;1.67;;;17.90;98.70;;;;;;4808132;29;20031;-89
2022/06/11 02:27:56;;;;;;;5.60;1.83;;;17.90;98.90;;;;;;4808108;29;20045;-88
2022/06/11 02:30:25;;;;;;;4.60;1.65;;;17.90;99.10;;;;;;4807055;29;20035;-88
2022/06/11 02:32:51;;;;;;;8.30;1.88;;;17.90;99.30;;;;;;4807862;29;20396;-89
2022/06/11 02:35:35;;;;;;;8.70;2.13;;;17.80;99.50;;;;;;4809472;29;20065;-88
2022/06/11 02:38:04;;;;;;;6.13;2.03;;;17.70;99.40;;;;;;4825947;29;20037;-88
2022/06/11 02:40:35;;;;;;;6.43;1.83;;;17.70;99.50;;;;;;4814506;29;20031;-88
2022/06/11 02:43:01;;;;;;;7.85;1.88;;;17.80;99.60;;;;;;4806077;29;20054;-88
2022/06/11 02:45:27;;;;;;;4.30;1.70;;;17.70;99.70;;;;;;4812626;29;20558;-88
2022/06/11 02:47:53;;;;;;;6.07;2.00;;;17.70;99.60;;;;;;4824647;29;20118;-89
2022/06/11 02:50:31;;;;;;;5.38;1.83;;;17.70;99.70;;;;;;4825608;29;20030;-89
2022/06/11 02:52:58;;;;;;;5.25;1.85;;;17.70;99.60;;;;;;4825309;29;20038;-88
2022/06/11 02:55:24;;;;;;;4.95;1.83;;;17.70;99.90;;;;;;4824344;29;20559;-89
2022/06/11 02:57:50;;;;;;;6.80;2.30;;;17.60;99.90;;;;;;4807523;29;20042;-89
2022/06/11 03:00:21;;;;;;;3.47;1.60;;;17.60;99.90;;;;;;4806839;29;20038;-87
2022/06/11 03:02:48;;;;;;;4.57;1.70;;;17.60;99.90;;;;;;4807382;29;20037;-88
2022/06/11 03:05:18;;;;;;;4.57;2.25;;;17.50;99.90;;;;;;4807018;29;20295;-88
2022/06/11 03:07:45;;;;;;;6.13;2.10;;;17.60;99.90;;;;;;4807352;29;20023;-88
2022/06/11 03:10:14;;;;;;;4.57;1.73;;;17.50;99.90;;;;;;4805200;29;20042;-89
2022/06/11 03:12:40;;;;;;;4.93;1.60;;;17.50;99.90;;;;;;4819112;29;20027;-89
2022/06/11 03:15:06;;;;;;;6.60;1.90;;;17.40;99.90;;;;;;4826326;29;20117;-88
2022/06/11 03:17:32;;;;;;;6.55;1.50;;;17.50;99.90;;;;;;4828322;29;20084;-89
2022/06/11 03:19:58;;;;;;;4.38;1.42;;;17.60;99.90;;;;;;4825310;29;20042;-88
2022/06/11 03:22:24;;;;;;;5.45;1.77;;;17.60;99.90;;;;;;4839197;29;20391;-89
2022/06/11 03:24:49;;;;;;;7.45;2.25;;;17.60;99.90;;;;;;4825258;29;20498;-89
2022/06/11 03:27:17;;;;;;;6.60;1.60;;;17.50;99.90;;;;;;4838339;29;20121;-88
2022/06/11 03:29:43;;;;;;;4.70;1.73;;;17.60;99.90;;;;;;4824901;29;20030;-88
2022/06/11 03:32:09;;;;;;;6.30;1.63;;;17.50;99.90;;;;;;4838796;29;20460;-88
2022/06/11 03:34:35;;;;;;;6.32;1.73;;;17.60;99.90;;;;;;4823775;29;20042;-88
2022/06/11 03:37:02;;;;;;;8.13;2.17;;;17.70;99.90;;;;;;4825214;29;20037;-88
2022/06/11 03:39:28;;;;;;;4.57;1.60;;;17.70;99.90;;;;;;4824499;29;20113;-88
2022/06/11 03:41:54;;;;;;;9.60;2.08;;;17.60;99.50;;;;;;4824255;29;20163;-88
2022/06/11 03:44:20;;;;;;;7.35;2.38;;;17.70;99.70;;;;;;4823001;29;20054;-89
2022/06/11 03:46:46;;;;;;;6.25;1.58;;;17.60;99.80;;;;;;4824703;29;20109;-89
2022/06/11 03:49:13;;;;;;;7.30;2.00;;;17.60;99.90;;;;;;4827026;29;20180;-88
2022/06/11 03:51:39;;;;;;;8.10;1.90;;;17.60;99.90;;;;;;4824866;29;20038;-89
2022/06/11 03:54:05;;;;;;;6.47;1.90;;;17.60;99.90;;;;;;4826195;29;20038;-88
2022/06/11 03:56:31;;;;;;;8.95;2.00;;;17.60;99.90;;;;;;4825927;29;20073;-89
2022/06/11 03:58:57;;;;;;;6.35;1.88;;;17.50;99.90;;;;;;4823403;29;20108;-89
2022/06/11 04:01:23;;;;;;;4.53;1.83;;;17.50;99.90;;;;;;4820004;29;20057;-88
2022/06/11 04:04:04;;;;;;;5.07;1.85;;;17.50;99.90;;;;;;4806319;29;20080;-89
2022/06/11 04:06:32;;;;;;;3.15;1.75;;;17.50;99.90;;;;;;4806356;29;20055;-88
2022/06/11 04:08:58;;;;;;;5.65;1.90;;;17.50;99.90;;;;;;4806422;29;20083;-88
2022/06/11 04:11:24;;;;;;;7.78;1.50;;;17.40;99.90;;;;;;4806006;29;20548;-88
2022/06/11 04:13:51;;;;;;;5.60;1.55;;;17.40;99.90;;;;;;4820201;29;20034;-89
2022/06/11 04:16:33;;;;;;;7.78;1.92;;;17.50;99.90;;;;;;4810387;29;20498;-88
2022/06/11 04:19:02;;;;;;;5.50;1.50;;;17.50;99.90;;;;;;4824364;29;20034;-88
2022/06/11 04:21:29;;;;;;;5.13;2.05;;;17.50;99.90;;;;;;4823019;29;20117;-88
2022/06/11 04:23:57;;;;;;;7.63;1.83;;;17.50;99.90;;;;;;4824844;29;20031;-89
2022/06/11 04:26:32;;;;;;;4.20;1.30;;;17.50;99.90;;;;;;4822617;29;20499;-88
2022/06/11 04:29:00;;;;;;;8.05;1.80;;;17.40;99.90;;;;;;4824371;29;20579;-88
2022/06/11 04:31:27;;;;;;;4.90;1.80;;;17.40;99.90;;;;;;4822405;29;20035;-88
2022/06/11 04:33:54;;;;;;;10.50;1.85;;;17.40;99.90;;;;;;4825557;29;20078;-88
2022/06/11 04:36:23;;;;;;;4.93;1.80;;;17.40;99.90;;;;;;4824848;29;20023;-87
2022/06/11 04:38:49;;;;;;;3.63;1.50;;;17.40;99.90;;;;;;4823771;29;20034;-89
2022/06/11 04:41:16;;;;;;;5.45;1.25;;;17.40;99.90;;;;;;4822424;29;20436;-88
2022/06/11 04:43:42;;;;;;;3.45;1.40;;;17.30;99.90;;;;;;4822741;29;20149;-88
2022/06/11 04:46:08;;;;;;;3.95;1.38;;;17.30;99.90;;;;;;4829853;29;20018;-88
2022/06/11 04:48:35;;;;;;;6.03;1.52;;;17.30;99.90;;;;;;4841970;29;20038;-89
2022/06/11 04:51:02;;;;;;;4.75;1.58;;;17.30;99.90;;;;;;4842279;29;20502;-89
2022/06/11 04:53:30;;;;;;;4.60;1.30;;;17.30;99.90;;;;;;4840979;29;20029;-88
2022/06/11 04:55:55;;;;;;;5.32;1.80;;;17.40;99.90;;;;;;4826170;29;20022;-89
2022/06/11 04:58:21;;;;;;;5.28;1.58;;;17.40;99.90;;;;;;4823605;29;20088;-89
2022/06/11 05:00:47;;;;;;;2.55;1.30;;;17.40;99.90;;;;;;4837902;29;20030;-88
2022/06/11 05:03:13;;;;;;;12.07;1.52;;;17.50;99.90;;;;;;4823821;29;20086;-87
2022/06/11 05:05:39;;;;;;;8.77;2.03;;;17.60;99.90;;;;;;4822267;29;20106;-88
2022/06/11 05:08:05;;;;;;;5.07;1.77;;;17.70;99.90;;;;;;4822094;29;20079;-88
2022/06/11 05:10:36;;;;;;;5.05;1.70;;;17.80;99.90;;;;;;4821503;29;20143;-88
2022/06/11 05:13:04;;;;;;;8.25;1.30;;;17.80;99.90;;;;;;4823992;29;20066;-88
2022/06/11 05:15:31;;;;;;;5.78;1.40;;;17.90;99.90;;;;;;4824852;29;20718;-88
2022/06/11 05:17:57;;;;;;;6.18;1.85;;;18.00;99.90;;;;;;4824251;29;20035;-88
2022/06/11 05:20:22;;;;;;;7.65;2.15;;;18.10;99.90;;;;;;4837302;29;20036;-88
2022/06/11 05:22:48;;;;;;;5.30;1.67;;;18.10;99.20;;;;;;4823604;29;20109;-88
2022/06/11 05:25:16;;;;;;;9.52;1.90;;;18.20;99.10;;;;;;4820722;29;20018;-88
2022/06/11 05:27:43;;;;;;;2.90;1.60;;;18.20;98.80;;;;;;4823292;29;20432;-88
2022/06/11 05:30:15;;;;;;;3.15;1.67;;;18.30;99.80;;;;;;4837335;29;20134;-88
2022/06/11 05:32:41;;;;;;;6.82;1.52;;;18.30;99.30;;;;;;4814101;29;20113;-88
2022/06/11 05:35:11;;;;;;;7.57;1.60;;;18.30;98.70;;;;;;4821815;29;20035;-87
2022/06/11 05:37:36;;;;;;;13.75;1.52;;;18.30;99.00;;;;;;4826310;29;20030;-88
2022/06/11 05:40:05;;;;;;;5.57;1.48;;;18.20;98.90;;;;;;4826510;29;20030;-88
2022/06/11 05:42:32;;;;;;;5.90;1.80;;;18.30;99.00;;;;;;4826362;29;20030;-88
2022/06/11 05:44:58;;;;;;;9.85;1.60;;;18.40;98.80;;;;;;4826532;29;20038;-89
2022/06/11 05:47:26;;;;;;;6.38;1.70;;;18.50;98.60;;;;;;4825477;29;20498;-89
2022/06/11 05:49:56;;;;;;;9.18;1.60;;;18.50;98.30;;;;;;4826692;29;20053;-89
2022/06/11 05:52:26;;;;;;;6.57;1.45;;;18.60;97.60;;;;;;4827853;29;20034;-88
2022/06/11 05:54:53;;;;;;;5.03;1.83;;;18.60;97.80;;;;;;4830403;29;20030;-89
2022/06/11 05:57:21;;;;;;;6.03;1.80;;;18.60;97.70;;;;;;4823087;29;20052;-88
2022/06/11 05:59:52;;;;;;;8.27;1.65;;;18.60;97.70;;;;;;4826384;29;20074;-88
2022/06/11 06:02:20;;;;;;;5.65;1.33;;;18.70;97.80;;;;;;4825419;29;20494;-88
2022/06/11 06:04:46;;;;;;;5.97;1.73;;;18.80;98.00;;;;;;4824927;29;20034;-87
2022/06/11 06:07:12;;;;;;;7.20;1.42;;;18.80;97.90;;;;;;4825932;29;20041;-87
2022/06/11 06:09:38;;;;;;;3.03;1.20;;;18.80;97.30;;;;;;4840200;29;20077;-89
2022/06/11 06:12:04;;;;;;;4.78;1.63;;;18.80;97.60;;;;;;4824845;29;20069;-89
2022/06/11 06:14:31;;;;;;;8.10;1.67;;;18.90;97.80;;;;;;4824828;29;20466;-88
2022/06/11 06:16:56;;;;;;;5.70;1.30;;;18.90;97.60;;;;;;4824888;29;20095;-88
2022/06/11 06:19:22;;;;;;;4.45;1.45;;;18.90;97.70;;;;;;4821547;29;20031;-88
2022/06/11 06:21:48;;;;;;;5.75;1.60;;;18.80;97.70;;;;;;4806657;29;20039;-89
2022/06/11 06:24:14;;;;;;;4.13;1.38;;;18.80;98.30;;;;;;4806777;29;20038;-88
2022/06/11 06:26:40;;;;;;;5.28;1.92;;;18.90;98.00;;;;;;4821419;29;20042;-88
2022/06/11 06:29:06;;;;;;;3.83;1.30;;;19.00;97.60;;;;;;4806778;29;20403;-89
2022/06/11 06:31:32;;;;;;;12.93;1.67;;;19.00;97.70;;;;;;4822053;29;20094;-88
2022/06/11 06:34:01;;;;;;;4.70;1.50;;;19.00;97.60;;;;;;4826168;29;20057;-88
2022/06/11 06:36:31;;;;;;;6.93;1.52;;;19.00;97.50;;;;;;4825542;29;20035;-87
2022/06/11 06:38:57;;;;;;;4.35;1.75;;;19.10;97.50;;;;;;4825580;29;20034;-88
2022/06/11 06:41:23;;;;;;;6.47;1.58;;;19.10;97.40;;;;;;4825518;29;20510;-88
2022/06/11 06:43:49;;;;;;;6.45;1.45;;;19.20;97.10;;;;;;4824661;29;20049;-88
2022/06/11 06:46:16;;;;;;;8.38;1.98;;;19.10;97.10;;;;;;4820969;29;20030;-89
2022/06/11 06:48:43;;;;;;;4.43;1.55;;;19.10;97.10;;;;;;4843924;29;20022;-87
2022/06/11 06:51:09;;;;;;;5.32;1.60;;;19.20;97.40;;;;;;4842113;29;20029;-89
2022/06/11 06:53:39;;;;;;;4.10;1.63;;;19.30;97.60;;;;;;4842554;29;20486;-88
2022/06/11 06:56:06;;;;;;;6.88;1.65;;;19.30;97.60;;;;;;4843800;29;20030;-88
2022/06/11 06:58:32;;;;;;;5.70;1.55;;;19.40;97.40;;;;;;4842542;29;20026;-88
2022/06/11 07:00:57;;;;;;;5.43;1.42;;;19.50;97.40;;;;;;4843489;29;20042;-88
2022/06/11 07:03:23;;;;;;;6.47;1.73;;;19.50;97.50;;;;;;4843606;29;20032;-88
2022/06/11 07:05:49;;;;;;;6.63;1.95;;;19.60;97.40;;;;;;4838539;29;20099;-88
2022/06/11 07:08:16;;;;;;;8.75;2.08;;;19.50;97.50;;;;;;4825086;29;20064;-89
2022/06/11 07:10:50;;;;;;;4.25;1.80;;;19.60;97.80;;;;;;4817977;29;20043;-88
2022/06/11 07:13:16;;;;;;;6.10;2.00;;;19.70;97.90;;;;;;4806724;29;20027;-89
2022/06/11 07:15:43;;;;;;;6.38;1.67;;;19.70;97.60;;;;;;4819919;29;20495;-89
2022/06/11 07:18:26;;;;;;;4.65;1.67;;;19.80;97.50;;;;;;4824238;29;20091;-90
2022/06/11 07:20:53;;;;;;;11.40;1.65;;;19.90;97.50;;;;;;4825554;29;20046;-89
2022/06/11 07:23:27;;;;;;;8.15;1.73;;;20.00;97.20;;;;;;4813098;29;20027;-90
2022/06/11 07:25:56;;;;;;;7.90;2.00;;;20.00;97.30;;;;;;4805540;29;20042;-90
2022/06/11 07:28:27;;;;;;;5.15;1.80;;;20.10;97.10;;;;;;4805576;29;20138;-87
2022/06/11 07:30:53;;;;;;;5.43;1.67;;;20.30;97.00;;;;;;4814157;29;20190;-88
2022/06/11 07:33:22;;;;;;;6.57;1.17;;;20.30;96.90;;;;;;4806849;29;20050;-87
2022/06/11 07:35:49;;;;;;;9.40;1.63;;;20.40;97.30;;;;;;4805441;29;20045;-86
2022/06/11 07:38:18;;;;;;;7.10;1.60;;;20.40;96.40;;;;;;4817160;29;20478;-82
2022/06/11 07:40:43;;;;;;;4.65;1.50;;;20.60;96.30;;;;;;4823276;29;20091;-82
2022/06/11 07:43:09;;;;;;;10.35;1.48;;;20.60;96.30;;;;;;4820725;29;20027;-83
2022/06/11 07:45:39;;;;;;;6.97;1.48;;;20.70;95.70;;;;;;4819880;29;20050;-81
2022/06/11 07:48:05;;;;;;;6.43;1.67;;;20.70;95.80;;;;;;4831614;29;20405;-87
2022/06/11 07:50:37;;;;;;;3.80;1.42;;;20.70;95.80;;;;;;4837359;29;20109;-83
2022/06/11 07:53:03;;;;;;;;;;;20.80;95.30;;;;;;4820500;29;20031;-82
2022/06/11 07:55:30;;;;;;;5.05;1.70;;;20.90;95.40;;;;;;4821612;29;19909;-86
2022/06/11 07:57:57;;;;;;;4.75;1.30;;;21.00;95.50;;;;;;4823612;29;20050;-84
2022/06/11 08:00:26;;;;;;;6.05;1.67;;;21.00;95.40;;;;;;4823495;29;20030;-84
2022/06/11 08:02:52;;;;;;;4.45;1.48;;;21.10;95.30;;;;;;4823133;29;20105;-85
2022/06/11 08:05:18;;;;;;;4.50;1.60;;;21.20;94.90;;;;;;4822176;29;20575;-83
2022/06/11 08:07:44;;;;;;;6.80;1.77;;;21.20;94.80;;;;;;4823429;29;20022;-83
2022/06/11 08:10:11;;;;;;;9.57;2.22;;;21.40;94.90;;;;;;4823303;29;20030;-83
2022/06/11 08:12:37;;;;;;;3.15;1.42;;;21.50;94.50;;;;;;4823845;29;20483;-88
2022/06/11 08:15:03;;;;;;;9.20;1.95;;;21.60;94.00;;;;;;4820682;29;20113;-84
2022/06/11 08:17:30;;;;;;;8.93;1.70;;;21.70;94.00;;;;;;4822099;29;20094;-78
2022/06/11 08:19:56;;;;;;;7.00;1.63;;;21.80;93.50;;;;;;4824005;29;20122;-84
2022/06/11 08:22:23;;;;;;;7.80;1.98;;;22.00;93.50;;;;;;4823144;29;20074;-86
2022/06/11 08:24:48;;;;;;;6.25;1.83;;;22.30;92.90;;;;;;4823926;29;20061;-88
2022/06/11 10:39:40;;;;;;;7.80;1.40;;;30.70;60.00;;;;;;5046075;23;20053;-83
2022/06/11 10:42:15;;;;;;;4.78;1.48;;;30.50;61.30;;;;;;4826387;29;20045;-82
2022/06/11 10:44:46;;;;;;;7.25;1.65;;;30.70;60.60;;;;;;4825428;29;20393;-82
2022/06/11 10:47:36;;;;;;;5.53;1.42;;;30.30;59.10;;;;;;4833967;29;20025;-82
2022/06/11 10:50:02;;;;;;;5.72;1.33;;;30.70;59.10;;;;;;4862206;29;20056;-82
2022/06/11 10:52:38;;;;;;;4.82;1.45;;;30.90;58.30;;;;;;4861875;29;20466;-83
2022/06/11 10:55:07;;;;;;;7.68;1.55;;;31.20;58.20;;;;;;4862026;29;20074;-84
2022/06/11 10:57:34;;;;;;;4.28;1.35;;;30.90;58.60;;;;;;4855878;29;20030;-80
2022/06/11 11:00:17;;;;;;;4.97;1.67;;;31.30;59.10;;;;;;4843280;29;20075;-84
2022/06/11 11:02:42;;;;;;;5.32;1.20;;;31.10;58.60;;;;;;4875375;29;20124;-83
2022/06/11 11:05:12;;;;;;;4.07;1.67;;;31.30;53.10;;;;;;4846419;29;20109;-82
2022/06/11 11:08:02;;;;;;;3.15;1.15;;;31.40;52.00;;;;;;4844205;29;20394;-83
2022/06/11 11:10:27;;;;;;;7.20;2.25;;;31.20;56.50;;;;;;4842994;29;20022;-83
2022/06/11 11:12:57;;;;;;;6.32;2.03;;;31.60;56.40;;;;;;4854876;29;20040;-83
2022/06/11 11:15:27;;;;;;;4.03;1.45;;;31.50;55.10;;;;;;4843312;29;20435;-80
2022/06/11 11:17:59;;;;;;;6.57;1.50;;;31.50;52.80;;;;;;4843188;29;20094;-83
2022/06/11 11:20:30;;;;;;;;;;;31.50;53.10;;;;;;4838630;29;20117;-82
2022/06/11 11:23:03;;;;;;;5.07;1.35;;;32.00;52.10;;;;;;4825154;29;19935;-82
2022/06/11 11:25:40;;;;;;;2.35;0.98;;;31.70;51.50;;;;;;4824500;29;20039;-82
2022/06/11 11:28:15;;;;;;;5.45;1.33;;;31.40;50.30;;;;;;4824364;29;20094;-81
2022/06/11 11:30:41;;;;;;;4.68;1.60;;;31.80;51.40;;;;;;4824111;29;20042;-82
2022/06/11 11:33:37;;;;;;;6.88;1.33;;;31.80;49.50;;;;;;4835570;29;20025;-82
2022/06/11 11:36:18;;;;;;;4.28;1.35;;;32.10;49.80;;;;;;4848575;29;20130;-80
2022/06/11 11:38:44;;;;;;;4.43;1.02;;;32.00;49.40;;;;;;4842551;29;20046;-80
2022/06/11 11:41:25;;;;;;;3.88;1.42;;;32.40;49.60;;;;;;4840790;29;20128;-80
2022/06/11 11:43:55;;;;;;;;;;;32.10;49.30;;;;;;4842127;29;20058;-79
2022/06/11 11:46:23;;;;;;;3.05;1.05;;;31.90;49.30;;;;;;4842684;29;19995;-82
2022/06/11 11:48:57;;;;;;;3.85;1.40;;;32.00;49.40;;;;;;4825654;29;20077;-81
2022/06/11 11:51:37;;;;;;;4.38;1.63;;;32.20;51.10;;;;;;4826830;29;20406;-82
2022/06/11 11:54:13;;;;;;;5.13;1.50;;;32.40;49.90;;;;;;4842840;29;20030;-80
2022/06/11 11:56:57;;;;;;;5.60;2.05;;;32.80;49.30;;;;;;4842288;29;20032;-81
2022/06/11 11:59:25;;;;;;;6.05;1.75;;;32.60;49.50;;;;;;4842429;29;20071;-86
2022/06/11 12:01:56;;;;;;;4.30;1.17;;;32.50;48.90;;;;;;4841298;29;20025;-80
2022/06/11 12:04:35;;;;;;;6.03;1.10;;;32.70;50.60;;;;;;4842376;29;20061;-87
2022/06/11 12:07:06;;;;;;;2.47;1.02;;;32.90;49.40;;;;;;4842469;29;20018;-79
2022/06/11 12:09:39;;;;;;;5.83;1.30;;;32.90;48.60;;;;;;4840689;29;20040;-85
2022/06/11 12:12:11;;;;;;;8.48;1.30;;;33.10;42.70;;;;;;4841822;29;20282;-79
2022/06/11 12:14:45;;;;;;;4.82;1.33;;;33.00;44.80;;;;;;4840103;29;20569;-81
2022/06/11 12:17:33;;;;;;;4.53;1.42;;;32.90;46.60;;;;;;4842292;29;20046;-81
2022/06/11 12:20:10;;;;;;;3.17;1.20;;;32.90;46.50;;;;;;4842440;29;20041;-83
2022/06/11 12:22:46;;;;;;;13.57;1.50;;;32.80;46.10;;;;;;4840627;29;20116;-81
2022/06/11 12:25:34;;;;;;;2.42;1.00;;;32.40;45.80;;;;;;4842011;29;20026;-82
2022/06/11 12:28:01;;;;;;;4.15;1.35;;;32.80;46.50;;;;;;4842291;29;20058;-81
2022/06/11 12:30:29;;;;;;;2.70;0.98;;;33.00;44.80;;;;;;4841904;29;20041;-81
2022/06/11 12:32:55;;;;;;;3.60;0.90;;;32.80;44.60;;;;;;4842160;29;20116;-82
2022/06/11 12:35:41;;;;;;;13.38;1.20;;;33.00;43.10;;;;;;4839159;29;20117;-80
2022/06/11 12:38:33;;;;;;;4.00;0.90;;;33.30;43.50;;;;;;4822354;29;20057;-79
2022/06/11 12:41:35;;;;;;;6.65;1.20;;;33.00;42.00;;;;;;4803208;29;20050;-80
2022/06/11 12:44:36;;;;;;;9.05;0.85;;;33.50;41.00;;;;;;4809774;29;20057;-79
2022/06/11 12:47:16;;;;;;;6.73;1.07;;;33.40;40.20;;;;;;4773528;30;20115;-78
2022/06/11 12:49:56;;;;;;;3.72;0.90;;;33.50;40.20;;;;;;4773290;30;20375;-78
2022/06/11 12:52:31;;;;;;;5.50;1.00;;;33.80;41.20;;;;;;4749233;30;20043;-84
2022/06/11 12:55:29;;;;;;;2.63;1.08;;;33.80;40.60;;;;;;4758141;30;20070;-82
2022/06/11 12:58:13;;;;;;;4.53;1.30;;;33.40;40.60;;;;;;4762539;30;20040;-82
2022/06/11 13:00:54;;;;;;;4.47;1.00;;;33.50;41.30;;;;;;4762942;30;20036;-81
2022/06/11 13:03:38;;;;;;;2.55;1.13;;;33.70;40.60;;;;;;4765553;30;20039;-80
2022/06/11 13:06:35;;;;;;;3.25;1.00;;;33.10;39.00;;;;;;4762392;30;20040;-80
2022/06/11 13:09:35;;;;;;;3.28;1.30;;;33.20;40.60;;;;;;4735194;30;20463;-80
2022/06/11 13:12:16;;;;;;;3.35;1.20;;;33.40;40.30;;;;;;4752972;30;20047;-80
2022/06/11 13:14:59;;;;;;;5.70;1.10;;;33.20;40.00;;;;;;4755643;30;20119;-81
2022/06/11 13:17:46;;;;;;;3.60;1.40;;;33.20;41.40;;;;;;4745411;30;20035;-81
2022/06/11 13:20:36;;;;;;;8.35;1.35;;;33.20;41.00;;;;;;4779050;29;20126;-82
2022/06/11 13:23:33;;;;;;;8.25;1.15;;;33.30;42.00;;;;;;4811081;29;20062;-80
2022/06/11 13:26:17;;;;;;;3.15;1.30;;;33.10;41.50;;;;;;4827001;29;20117;-81
2022/06/11 13:29:14;;;;;;;4.03;1.10;;;33.40;41.70;;;;;;4811351;29;20503;-82
2022/06/11 13:32:00;;;;;;;5.35;0.95;;;33.50;41.50;;;;;;4803596;29;20054;-81
2022/06/11 13:34:57;;;;;;;2.47;1.02;;;32.80;41.40;;;;;;4829179;29;20038;-80
2022/06/11 13:37:44;;;;;;;3.38;1.27;;;33.40;42.90;;;;;;4847420;29;20029;-80
2022/06/11 13:40:28;;;;;;;3.10;1.23;;;33.70;40.50;;;;;;4811238;29;20492;-80
2022/06/11 13:43:36;;;;;;;7.18;1.30;;;33.60;40.90;;;;;;4809766;29;20031;-80
2022/06/11 13:46:23;;;;;;;2.60;1.20;;;33.60;41.20;;;;;;4811147;29;20027;-80
2022/06/11 13:49:44;;;;;;;3.05;1.33;;;33.30;39.70;;;;;;4810489;29;20027;-80
2022/06/11 13:55:23;;;;;;;8.52;0.95;;;33.30;38.90;;;;;;4790248;30;20107;-80
2022/06/11 13:57:52;;;;;;;;;;;33.50;41.50;;;;;;4790573;29;20029;-79
2022/06/11 14:00:31;;;;;;;2.78;1.00;;;33.40;39.70;;;;;;4788991;29;19909;-80
2022/06/11 14:03:38;;;;;;;10.05;1.55;;;33.50;40.20;;;;;;4796290;29;20080;-81
2022/06/11 14:06:07;;;;;;;7.03;1.05;;;33.50;41.10;;;;;;4807646;29;20038;-79
2022/06/11 14:08:39;;;;;;;4.15;1.00;;;33.60;38.60;;;;;;4808227;29;20443;-79
2022/06/11 14:11:13;;;;;;;;;;;33.30;39.20;;;;;;4808238;29;20038;-80
2022/06/11 14:14:02;;;;;;;8.73;1.02;;;33.00;38.20;;;;;;4806676;29;19916;-79
2022/06/11 14:16:31;;;;;;;4.72;1.20;;;33.00;37.10;;;;;;4773267;30;20070;-81
2022/06/11 14:18:58;;;;;;;2.70;0.90;;;33.20;39.70;;;;;;4804206;29;20042;-81
2022/06/11 14:21:38;;;;;;;2.95;0.98;;;33.50;38.40;;;;;;4807134;29;20056;-82
2022/06/11 14:24:06;;;;;;;3.75;1.42;;;32.80;37.60;;;;;;4799091;29;20050;-81
2022/06/11 14:26:48;;;;;;;2.80;1.05;;;33.20;37.70;;;;;;4807429;29;20113;-81
2022/06/11 14:29:34;;;;;;;2.10;0.75;;;33.00;35.20;;;;;;4807051;29;20035;-82
2022/06/11 14:32:09;;;;;;;3.10;1.20;;;33.30;38.40;;;;;;4805953;29;20058;-81
2022/06/11 14:34:37;;;;;;;4.40;0.95;;;33.30;37.40;;;;;;4806135;29;20088;-82
2022/06/11 14:37:09;;;;;;;4.90;1.23;;;33.20;37.30;;;;;;4807203;29;20527;-79
2022/06/11 14:39:38;;;;;;;10.80;1.30;;;32.70;36.50;;;;;;4817945;29;20050;-79
2022/06/11 14:42:22;;;;;;;3.90;0.90;;;33.00;37.90;;;;;;4822090;29;20031;-80
2022/06/11 14:45:25;;;;;;;1.77;0.80;;;33.10;36.60;;;;;;4807379;29;20063;-79
2022/06/11 14:47:59;;;;;;;3.83;0.85;;;33.10;35.90;;;;;;4837798;29;20506;-79
2022/06/11 14:50:45;;;;;;;4.38;1.00;;;32.90;35.40;;;;;;4806941;29;20039;-79
2022/06/11 14:53:35;;;;;;;4.40;0.82;;;33.20;35.70;;;;;;4807266;29;20026;-80
2022/06/11 14:56:13;;;;;;;1.45;0.75;;;32.70;35.90;;;;;;4807247;29;20373;-80
2022/06/11 14:59:16;;;;;;;7.35;1.20;;;32.90;35.50;;;;;;4807345;29;20023;-79
2022/06/11 15:02:09;;;;;;;1.90;0.80;;;32.90;35.70;;;;;;4824165;29;20094;-82
2022/06/11 15:04:44;;;;;;;2.13;0.80;;;32.80;34.70;;;;;;4833793;29;20034;-82
2022/06/11 15:07:42;;;;;;;7.85;1.10;;;32.50;35.00;;;;;;4842134;29;20117;-79
2022/06/11 15:10:19;;;;;;;4.50;1.20;;;32.60;34.70;;;;;;4838070;29;20078;-79
2022/06/11 15:13:12;;;;;;;2.83;0.90;;;32.80;34.40;;;;;;4842306;29;20382;-79
2022/06/11 15:16:00;;;;;;;2.67;1.05;;;33.20;34.40;;;;;;4831613;29;20031;-78
2022/06/11 15:18:42;;;;;;;3.30;0.70;;;33.50;35.00;;;;;;4829176;29;20113;-80
2022/06/11 15:21:28;;;;;;;4.38;0.82;;;33.60;34.50;;;;;;4825138;29;20039;-79
2022/06/11 15:24:01;;;;;;;4.38;0.90;;;33.40;34.20;;;;;;4841355;29;20513;-79
2022/06/11 15:26:31;;;;;;;2.13;0.82;;;33.20;34.00;;;;;;4841400;29;20510;-79
2022/06/11 15:29:18;;;;;;;3.85;0.93;;;33.30;34.30;;;;;;4841602;29;20049;-80
2022/06/11 15:32:12;;;;;;;2.30;0.77;;;33.00;32.60;;;;;;4806587;29;20031;-80
2022/06/11 15:35:05;;;;;;;2.15;1.00;;;33.00;35.40;;;;;;4806723;29;20435;-80
2022/06/11 15:37:38;;;;;;;5.47;0.90;;;32.80;33.50;;;;;;4803448;29;20065;-78